Dominia — ICFW — position and weather

sailwx.info

Track history (hours):
 
Tides and Currents Weather Stations Pressure Air Temp Water Temp Dewpoint Dewpoint Depression Visibility Wind Speed Wind Dir Waves Ship Positions

Dominia

Last reported at 2015-Aug-28 20:24 UTC. Time now 2015-Sep-01 03:54 UTC.
Position N 42°42' E 034°10'.

Length 176 m; draft 9.7 m.

Type: Tanker. MMSI: 247273400.

Date/timePositionNaut miles runAvg speedWind from/ knotsBaromVisibWave heightAir tempDewpointWater temp
2015-Aug-28 20:24N 42°42' E 034°10'3512.2
2015-Aug-28 17:33N 42°54' E 034°55'1212.0
2015-Aug-28 16:33N 42°58' E 035°10'1212.1
2015-Aug-28 15:33N 43°03' E 035°26'1212.3
2015-Aug-28 14:33N 43°07' E 035°41'1312.5
2015-Aug-28 13:33N 43°11' E 035°57'1312.6
2015-Aug-28 12:33N 43°15' E 036°14'1312.6
2015-Aug-28 11:33N 43°20' E 036°30'1212.4
2015-Aug-28 10:33N 43°24' E 036°46'1212.4
2015-Aug-28 09:33N 43°28' E 037°02'1212.2
2015-Aug-28 08:33N 43°32' E 037°18'1212.3
2015-Aug-28 07:33N 43°37' E 037°34'1212.0
2015-Aug-28 06:33N 43°41' E 037°50'4212.1
2015-Aug-28 03:07N 43°55' E 038°44'712.8
2015-Aug-28 02:33N 43°58' E 038°53'1110.7
2015-Aug-28 01:33N 44°05' E 039°04'0 0.4
2015-Aug-28 00:31N 44°05' E 039°05'0 0.0
2015-Aug-27 23:31N 44°05' E 039°05'0 0.0
2015-Aug-27 22:31N 44°05' E 039°05'0 0.0
2015-Aug-27 21:31N 44°05' E 039°05'0 0.0
2015-Aug-27 20:31N 44°05' E 039°05'0 0.0
2015-Aug-27 19:31N 44°05' E 039°05'0 0.0
2015-Aug-27 18:31N 44°05' E 039°05'0 0.0
2015-Aug-27 17:31N 44°05' E 039°05'0 0.0
2015-Aug-27 16:31N 44°05' E 039°05'0 0.0
2015-Aug-27 15:31N 44°05' E 039°05'0 0.0
2015-Aug-27 14:31N 44°05' E 039°05'0 0.0
2015-Aug-27 13:31N 44°05' E 039°05'0 0.0
2015-Aug-27 12:31N 44°05' E 039°05'0 0.0
2015-Aug-27 11:31N 44°05' E 039°05'0 0.0
2015-Aug-27 10:31N 44°05' E 039°05'0 0.0
2015-Aug-27 09:28N 44°05' E 039°05'0 0.0
2015-Aug-27 08:31N 44°05' E 039°05'0 0.0
2015-Aug-27 07:31N 44°05' E 039°05'0 0.0
2015-Aug-27 06:31N 44°05' E 039°05'0 0.0
2015-Aug-27 05:31N 44°05' E 039°05'0 0.0
2015-Aug-27 04:31N 44°05' E 039°05'0 0.0
2015-Aug-27 03:31N 44°05' E 039°05'0 0.0
2015-Aug-27 02:31N 44°05' E 039°05'0 0.0
2015-Aug-27 01:31N 44°05' E 039°05'0 0.0
2015-Aug-27 00:31N 44°05' E 039°05'0 0.0
2015-Aug-26 23:31N 44°05' E 039°05'0 0.0
2015-Aug-26 22:31N 44°05' E 039°05'0 0.0
2015-Aug-26 21:31N 44°05' E 039°05'0 0.0
2015-Aug-26 20:31N 44°05' E 039°05'0 0.0
2015-Aug-26 19:33N 44°05' E 039°05'0 0.0
2015-Aug-26 18:33N 44°05' E 039°04'3 2.6
2015-Aug-26 17:34N 44°03' E 039°05'0 0.3
2015-Aug-26 16:32N 44°03' E 039°05'0 0.0
2015-Aug-26 15:33N 44°03' E 039°05'4 3.9
2015-Aug-26 14:33N 43°60' E 039°02'1312.8
2015-Aug-26 13:33N 43°55' E 038°45'1413.7
2015-Aug-26 12:33N 43°50' E 038°27'45213.3
2015-Aug-25 02:30N 40°60' E 028°60'9 9.9
2015-Aug-25 01:33N 40°52' E 028°53'6 6.3
2015-Aug-25 00:33N 40°46' E 028°56'0 0.5
2015-Aug-24 23:33N 40°47' E 028°56'0 0.5
2015-Aug-24 22:33N 40°47' E 028°56'0 0.4
2015-Aug-24 21:32N 40°47' E 028°56'0 0.3
2015-Aug-24 20:33N 40°48' E 028°57'0 0.5
2015-Aug-24 19:33N 40°48' E 028°57'1 0.8
2015-Aug-24 18:33N 40°49' E 028°57'1 0.7
2015-Aug-24 17:33N 40°50' E 028°57'7 7.2
2015-Aug-24 16:33N 40°43' E 028°54'1 0.9
2015-Aug-24 15:32N 40°44' E 028°55'1 1.3
2015-Aug-24 14:26N 40°45' E 028°56'1 1.3
2015-Aug-24 13:32N 40°46' E 028°57'1 1.3
2015-Aug-24 12:33N 40°47' E 028°57'1 1.2
2015-Aug-24 11:33N 40°48' E 028°57'3 3.3
2015-Aug-24 10:30N 40°49' E 028°53'3 0.9
2015-Aug-24 07:26N 40°51' E 028°55'0 0.5
2015-Aug-24 06:33N 40°51' E 028°56'5 4.7
2015-Aug-24 05:33N 40°51' E 028°49'1313.3
2015-Aug-24 04:33N 40°49' E 028°32'  
2015-Aug-20 22:29N 37°35' E 024°09'1313.7
2015-Aug-20 21:33N 37°24' E 023°60'1413.8
2015-Aug-20 20:33N 37°13' E 023°50'1414.0
2015-Aug-20 19:33N 37°01' E 023°40'1413.6
2015-Aug-20 18:33N 36°50' E 023°31'1413.7
2015-Aug-20 17:32N 36°37' E 023°23'35613.5
2015-Aug-19 15:08N 36°31' E 016°00'2214.2
2015-Aug-19 13:33N 36°32' E 015°32'1414.0
2015-Aug-19 12:33N 36°33' E 015°15'1413.9
2015-Aug-19 11:33N 36°34' E 014°58'1414.2
2015-Aug-19 10:34N 36°37' E 014°41'1414.0
2015-Aug-19 09:33N 36°42' E 014°24'1313.0
2015-Aug-19 08:33N 36°48' E 014°10'1212.5
2015-Aug-19 07:33N 36°54' E 013°56'1312.5
2015-Aug-19 06:33N 36°60' E 013°42'  
Track history (hours):
 
Tides and Currents Weather Stations Pressure Air Temp Water Temp Dewpoint Dewpoint Depression Visibility Wind Speed Wind Dir Waves Ship Positions

Dominia

Last reported at 2015-Aug-28 20:24 UTC. Time now 2015-Sep-01 03:54 UTC.
Position N 42°42' E 034°10'.

Length 176 m; draft 9.7 m.

Type: Tanker. MMSI: 247273400.

Date/timePositionNaut miles runAvg speedWind from/ knotsBaromVisibWave heightAir tempDewpointWater temp
2015-Aug-28 20:24N 42°42' E 034°10'3512.2
2015-Aug-28 17:33N 42°54' E 034°55'1212.0
2015-Aug-28 16:33N 42°58' E 035°10'1212.1
2015-Aug-28 15:33N 43°03' E 035°26'1212.3
2015-Aug-28 14:33N 43°07' E 035°41'1312.5
2015-Aug-28 13:33N 43°11' E 035°57'1312.6
2015-Aug-28 12:33N 43°15' E 036°14'1312.6
2015-Aug-28 11:33N 43°20' E 036°30'1212.4
2015-Aug-28 10:33N 43°24' E 036°46'1212.4
2015-Aug-28 09:33N 43°28' E 037°02'1212.2
2015-Aug-28 08:33N 43°32' E 037°18'1212.3
2015-Aug-28 07:33N 43°37' E 037°34'1212.0
2015-Aug-28 06:33N 43°41' E 037°50'4212.1
2015-Aug-28 03:07N 43°55' E 038°44'712.8
2015-Aug-28 02:33N 43°58' E 038°53'1110.7
2015-Aug-28 01:33N 44°05' E 039°04'0 0.4
2015-Aug-28 00:31N 44°05' E 039°05'0 0.0
2015-Aug-27 23:31N 44°05' E 039°05'0 0.0
2015-Aug-27 22:31N 44°05' E 039°05'0 0.0
2015-Aug-27 21:31N 44°05' E 039°05'0 0.0
2015-Aug-27 20:31N 44°05' E 039°05'0 0.0
2015-Aug-27 19:31N 44°05' E 039°05'0 0.0
2015-Aug-27 18:31N 44°05' E 039°05'0 0.0
2015-Aug-27 17:31N 44°05' E 039°05'0 0.0
2015-Aug-27 16:31N 44°05' E 039°05'0 0.0
2015-Aug-27 15:31N 44°05' E 039°05'0 0.0
2015-Aug-27 14:31N 44°05' E 039°05'0 0.0
2015-Aug-27 13:31N 44°05' E 039°05'0 0.0
2015-Aug-27 12:31N 44°05' E 039°05'0 0.0
2015-Aug-27 11:31N 44°05' E 039°05'0 0.0
2015-Aug-27 10:31N 44°05' E 039°05'0 0.0
2015-Aug-27 09:28N 44°05' E 039°05'0 0.0
2015-Aug-27 08:31N 44°05' E 039°05'0 0.0
2015-Aug-27 07:31N 44°05' E 039°05'0 0.0
2015-Aug-27 06:31N 44°05' E 039°05'0 0.0
2015-Aug-27 05:31N 44°05' E 039°05'0 0.0
2015-Aug-27 04:31N 44°05' E 039°05'0 0.0
2015-Aug-27 03:31N 44°05' E 039°05'0 0.0
2015-Aug-27 02:31N 44°05' E 039°05'0 0.0
2015-Aug-27 01:31N 44°05' E 039°05'0 0.0
2015-Aug-27 00:31N 44°05' E 039°05'0 0.0
2015-Aug-26 23:31N 44°05' E 039°05'0 0.0
2015-Aug-26 22:31N 44°05' E 039°05'0 0.0
2015-Aug-26 21:31N 44°05' E 039°05'0 0.0
2015-Aug-26 20:31N 44°05' E 039°05'0 0.0
2015-Aug-26 19:33N 44°05' E 039°05'0 0.0
2015-Aug-26 18:33N 44°05' E 039°04'3 2.6
2015-Aug-26 17:34N 44°03' E 039°05'0 0.3
2015-Aug-26 16:32N 44°03' E 039°05'0 0.0
2015-Aug-26 15:33N 44°03' E 039°05'4 3.9
2015-Aug-26 14:33N 43°60' E 039°02'1312.8
2015-Aug-26 13:33N 43°55' E 038°45'1413.7
2015-Aug-26 12:33N 43°50' E 038°27'45213.3
2015-Aug-25 02:30N 40°60' E 028°60'9 9.9
2015-Aug-25 01:33N 40°52' E 028°53'6 6.3
2015-Aug-25 00:33N 40°46' E 028°56'0 0.5
2015-Aug-24 23:33N 40°47' E 028°56'0 0.5
2015-Aug-24 22:33N 40°47' E 028°56'0 0.4
2015-Aug-24 21:32N 40°47' E 028°56'0 0.3
2015-Aug-24 20:33N 40°48' E 028°57'0 0.5
2015-Aug-24 19:33N 40°48' E 028°57'1 0.8
2015-Aug-24 18:33N 40°49' E 028°57'1 0.7
2015-Aug-24 17:33N 40°50' E 028°57'7 7.2
2015-Aug-24 16:33N 40°43' E 028°54'1 0.9
2015-Aug-24 15:32N 40°44' E 028°55'1 1.3
2015-Aug-24 14:26N 40°45' E 028°56'1 1.3
2015-Aug-24 13:32N 40°46' E 028°57'1 1.3
2015-Aug-24 12:33N 40°47' E 028°57'1 1.2
2015-Aug-24 11:33N 40°48' E 028°57'3 3.3
2015-Aug-24 10:30N 40°49' E 028°53'3 0.9
2015-Aug-24 07:26N 40°51' E 028°55'0 0.5
2015-Aug-24 06:33N 40°51' E 028°56'5 4.7
2015-Aug-24 05:33N 40°51' E 028°49'1313.3
2015-Aug-24 04:33N 40°49' E 028°32'  
2015-Aug-20 22:29N 37°35' E 024°09'1313.7
2015-Aug-20 21:33N 37°24' E 023°60'1413.8
2015-Aug-20 20:33N 37°13' E 023°50'1414.0
2015-Aug-20 19:33N 37°01' E 023°40'1413.6
2015-Aug-20 18:33N 36°50' E 023°31'1413.7
2015-Aug-20 17:32N 36°37' E 023°23'35613.5
2015-Aug-19 15:08N 36°31' E 016°00'2214.2
2015-Aug-19 13:33N 36°32' E 015°32'1414.0
2015-Aug-19 12:33N 36°33' E 015°15'1413.9
2015-Aug-19 11:33N 36°34' E 014°58'1414.2
2015-Aug-19 10:34N 36°37' E 014°41'1414.0
2015-Aug-19 09:33N 36°42' E 014°24'1313.0
2015-Aug-19 08:33N 36°48' E 014°10'1212.5
2015-Aug-19 07:33N 36°54' E 013°56'1312.5
2015-Aug-19 06:33N 36°60' E 013°42'  

Dump ship's entire track history